Time;durP1;ratioP1;P1;durP2;ratioP2;P2;SDS_P1;SDS_P2;PMS_P1;PMS_P2;Temp;Humidity;BMP_temperature;BMP_pressure;BME280_temperature;BME280_humidity;BME280_pressure;Samples;Min_cycle;Max_cycle;Signal;HPM_P1;HPM_P2
2022/01/13 00:01:30;;;;;;;61.00;29.77;;;5.10;99.90;;;;;;5035128;28;20439;-64
2022/01/13 00:03:57;;;;;;;62.97;30.50;;;5.10;99.90;;;;;;5034924;28;20490;-64
2022/01/13 00:06:25;;;;;;;65.40;31.27;;;5.20;99.90;;;;;;5035084;28;20445;-64
2022/01/13 00:08:52;;;;;;;65.47;30.73;;;5.20;99.90;;;;;;5034905;28;20457;-64
2022/01/13 00:11:19;;;;;;;67.27;33.13;;;5.20;99.90;;;;;;5034872;28;20457;-64
2022/01/13 00:13:49;;;;;;;60.20;32.17;;;5.20;99.90;;;;;;5034542;28;20458;-64
2022/01/13 00:16:39;;;;;;;73.30;33.90;;;5.30;99.90;;;;;;5034483;28;20849;-64
2022/01/13 00:19:19;;;;;;;66.97;32.57;;;5.30;99.90;;;;;;5034712;28;20453;-64
2022/01/13 00:21:57;;;;;;;60.80;31.43;;;5.20;99.90;;;;;;5034701;28;20434;-64
2022/01/13 00:24:24;;;;;;;62.93;33.03;;;5.10;99.90;;;;;;5034281;28;20540;-64
2022/01/13 00:26:52;;;;;;;64.53;32.37;;;5.10;99.90;;;;;;5034557;28;20442;-64
2022/01/13 00:29:25;;;;;;;68.10;30.83;;;5.00;99.90;;;;;;5034532;28;20450;-63
2022/01/13 00:31:51;;;;;;;58.03;30.90;;;4.80;99.90;;;;;;5034293;28;20435;-64
2022/01/13 00:34:18;;;;;;;57.63;32.00;;;4.80;99.90;;;;;;5034363;28;20463;-64
2022/01/13 00:36:46;;;;;;;65.80;33.60;;;4.70;99.90;;;;;;5034378;28;20453;-64
2022/01/13 00:39:14;;;;;;;64.77;32.43;;;4.80;99.90;;;;;;5034267;28;20786;-64
2022/01/13 00:41:41;;;;;;;53.27;29.30;;;4.80;99.90;;;;;;5034242;28;20446;-64
2022/01/13 00:44:09;;;;;;;63.63;33.70;;;4.70;99.90;;;;;;5033856;28;20513;-64
2022/01/13 00:46:44;;;;;;;63.10;33.90;;;4.70;99.90;;;;;;5034489;28;20437;-64
2022/01/13 00:49:12;;;;;;;60.50;33.53;;;4.70;99.90;;;;;;5033816;28;20431;-64
2022/01/13 00:51:39;;;;;;;77.53;35.30;;;4.70;99.90;;;;;;5033682;28;20819;-63
2022/01/13 00:54:08;;;;;;;56.50;32.93;;;4.60;99.90;;;;;;5034031;28;20469;-63
2022/01/13 00:56:36;;;;;;;57.93;31.80;;;4.60;99.90;;;;;;5034504;28;20458;-63
2022/01/13 00:59:07;;;;;;;63.77;33.37;;;4.70;99.90;;;;;;5033901;28;20446;-63
2022/01/13 01:01:35;;;;;;;58.37;34.73;;;4.80;99.90;;;;;;5033628;28;20921;-63
2022/01/13 01:04:02;;;;;;;64.07;34.07;;;4.80;99.90;;;;;;5033808;28;20486;-64
2022/01/13 01:06:29;;;;;;;61.30;33.73;;;4.90;99.90;;;;;;5033845;28;20457;-64
2022/01/13 01:08:56;;;;;;;63.07;35.50;;;4.90;99.90;;;;;;5033513;28;20791;-64
2022/01/13 01:11:26;;;;;;;70.03;36.87;;;4.90;99.90;;;;;;5033470;28;20504;-64
2022/01/13 01:13:53;;;;;;;70.47;37.03;;;4.90;99.90;;;;;;5033707;28;20466;-63
2022/01/13 01:16:20;;;;;;;64.87;34.03;;;4.80;99.90;;;;;;5033702;28;20473;-63
2022/01/13 01:18:55;;;;;;;61.90;32.70;;;4.80;99.90;;;;;;5033674;28;20446;-63
2022/01/13 01:21:47;;;;;;;60.20;33.40;;;4.70;99.90;;;;;;5033443;28;20434;-63
2022/01/13 01:24:42;;;;;;;68.17;34.37;;;4.70;99.90;;;;;;5033213;28;20513;-63
2022/01/13 01:27:17;;;;;;;68.63;34.23;;;4.60;99.90;;;;;;5033520;28;20827;-63
2022/01/13 01:29:52;;;;;;;63.90;34.20;;;4.70;99.90;;;;;;5033845;28;20525;-63
2022/01/13 01:32:19;;;;;;;62.20;34.20;;;4.80;99.90;;;;;;5034076;28;20449;-63
2022/01/13 01:34:54;;;;;;;56.00;34.70;;;4.80;99.90;;;;;;5034396;28;20498;-63
2022/01/13 01:37:23;;;;;;;57.67;34.37;;;4.90;99.90;;;;;;5033554;28;20426;-63
2022/01/13 01:39:51;;;;;;;61.60;34.20;;;4.90;99.90;;;;;;5033469;28;20500;-63
2022/01/13 01:42:21;;;;;;;65.17;36.10;;;5.00;99.90;;;;;;5033437;28;20809;-63
2022/01/13 01:44:51;;;;;;;59.50;34.80;;;5.00;99.90;;;;;;5033315;28;20482;-64
2022/01/13 01:47:20;;;;;;;69.47;35.63;;;5.10;99.90;;;;;;5033447;28;20887;-63
2022/01/13 01:49:49;;;;;;;63.03;36.63;;;5.20;99.90;;;;;;5033063;28;20446;-63
2022/01/13 01:52:18;;;;;;;58.33;34.00;;;5.20;99.90;;;;;;5033047;28;20791;-63
2022/01/13 01:54:46;;;;;;;66.27;35.90;;;5.20;99.90;;;;;;5032938;28;20458;-63
2022/01/13 01:57:13;;;;;;;64.43;36.43;;;5.20;99.90;;;;;;5033340;28;20452;-63
2022/01/13 01:59:42;;;;;;;54.83;34.80;;;5.30;99.90;;;;;;5033290;28;20454;-63
2022/01/13 02:02:12;;;;;;;59.63;34.33;;;5.20;99.90;;;;;;5033286;28;20446;-63
2022/01/13 02:04:39;;;;;;;67.83;35.80;;;5.20;99.90;;;;;;5033080;28;20536;-63
2022/01/13 02:07:07;;;;;;;57.23;31.57;;;5.10;99.90;;;;;;5033234;28;20449;-63
2022/01/13 02:09:36;;;;;;;64.70;36.13;;;5.00;99.90;;;;;;5033190;28;20454;-63
2022/01/13 02:12:07;;;;;;;57.50;33.10;;;4.90;99.90;;;;;;5032943;28;20549;-63
2022/01/13 02:14:46;;;;;;;57.07;33.00;;;4.80;99.90;;;;;;5033138;28;20463;-64
2022/01/13 02:17:22;;;;;;;73.40;37.50;;;4.90;99.90;;;;;;5033771;28;20500;-63
2022/01/13 02:19:51;;;;;;;58.80;32.40;;;4.90;99.90;;;;;;5032801;28;20465;-63
2022/01/13 02:22:19;;;;;;;60.93;35.50;;;4.90;99.90;;;;;;5033137;28;20812;-63
2022/01/13 02:24:46;;;;;;;62.37;35.13;;;4.90;99.90;;;;;;5032601;28;20497;-63
2022/01/13 02:27:13;;;;;;;73.70;36.33;;;4.90;99.90;;;;;;5033031;28;20470;-63
2022/01/13 02:29:39;;;;;;;67.53;37.07;;;5.00;99.90;;;;;;5033043;28;20450;-63
2022/01/13 02:32:08;;;;;;;65.30;36.40;;;5.00;99.90;;;;;;5034058;28;20446;-63
2022/01/13 02:34:36;;;;;;;63.83;35.60;;;5.00;99.90;;;;;;5036460;28;21049;-63
2022/01/13 02:37:04;;;;;;;66.40;37.23;;;5.10;99.90;;;;;;5037022;28;20449;-63
2022/01/13 02:39:33;;;;;;;72.77;38.50;;;5.20;99.90;;;;;;5037140;28;20453;-64
2022/01/13 02:42:01;;;;;;;66.90;35.83;;;5.20;99.90;;;;;;5036908;28;20932;-64
2022/01/13 02:44:29;;;;;;;66.53;36.93;;;5.20;99.90;;;;;;5037191;28;20572;-64
2022/01/13 02:47:20;;;;;;;58.83;34.70;;;5.20;99.90;;;;;;5036746;28;20446;-64
2022/01/13 02:49:47;;;;;;;66.30;35.43;;;5.20;99.90;;;;;;5036305;28;20825;-63
2022/01/13 02:52:15;;;;;;;60.30;34.57;;;5.20;99.90;;;;;;5036419;28;20450;-63
2022/01/13 02:54:43;;;;;;;59.83;35.33;;;5.00;99.90;;;;;;5036492;28;20489;-64
2022/01/13 02:57:09;;;;;;;62.53;35.20;;;4.90;99.90;;;;;;5036303;28;20453;-63
2022/01/13 02:59:36;;;;;;;64.70;36.47;;;4.90;99.90;;;;;;5036261;28;20477;-63
2022/01/13 03:02:03;;;;;;;70.60;35.60;;;4.90;99.90;;;;;;5035892;28;21028;-63
2022/01/13 03:04:30;;;;;;;64.20;36.73;;;4.80;99.90;;;;;;5036048;28;20523;-63
2022/01/13 03:06:57;;;;;;;64.80;35.57;;;4.80;99.90;;;;;;5036102;28;20450;-64
2022/01/13 03:09:23;;;;;;;71.90;35.90;;;4.70;99.90;;;;;;5036065;28;20450;-63
2022/01/13 03:11:51;;;;;;;72.57;37.60;;;4.70;99.90;;;;;;5035718;28;20933;-64
2022/01/13 03:14:18;;;;;;;80.10;40.47;;;4.80;99.90;;;;;;5035885;28;20462;-63
2022/01/13 03:16:45;;;;;;;75.13;39.90;;;4.80;99.90;;;;;;5035686;28;20431;-63
2022/01/13 03:19:13;;;;;;;79.27;39.83;;;4.80;99.90;;;;;;5035895;28;20470;-63
2022/01/13 03:21:39;;;;;;;70.87;38.10;;;4.80;99.90;;;;;;5035889;28;20446;-63
2022/01/13 03:24:16;;;;;;;65.80;36.53;;;4.80;99.90;;;;;;5035391;28;20842;-64
2022/01/13 03:26:46;;;;;;;71.53;39.27;;;4.80;99.90;;;;;;5035416;28;20549;-64
2022/01/13 03:29:20;;;;;;;72.33;36.47;;;4.70;99.90;;;;;;5035539;28;20473;-63
2022/01/13 03:31:47;;;;;;;71.30;37.53;;;4.70;99.90;;;;;;5035453;28;20530;-63
2022/01/13 03:34:16;;;;;;;75.67;36.20;;;4.80;99.90;;;;;;5035609;28;20463;-63
2022/01/13 03:36:44;;;;;;;63.23;34.60;;;4.80;99.90;;;;;;5035621;28;20808;-64
2022/01/13 03:39:12;;;;;;;69.80;36.33;;;4.80;99.90;;;;;;5035293;28;20916;-63
2022/01/13 03:41:39;;;;;;;66.90;37.90;;;4.80;99.90;;;;;;5035528;28;20458;-63
2022/01/13 03:44:16;;;;;;;66.30;36.03;;;4.80;99.90;;;;;;5034961;28;20486;-63
2022/01/13 03:46:44;;;;;;;69.77;35.60;;;4.80;99.90;;;;;;5035447;28;20430;-63
2022/01/13 03:49:11;;;;;;;66.40;35.00;;;4.80;99.90;;;;;;5035286;28;20442;-63
2022/01/13 03:52:15;;;;;;;69.27;35.33;;;4.90;99.90;;;;;;5035239;28;20453;-63
2022/01/13 03:55:38;;;;;;;58.13;34.20;;;4.90;99.90;;;;;;5034833;28;20980;-63
2022/01/13 03:58:42;;;;;;;66.93;33.53;;;4.90;99.90;;;;;;5035240;28;20434;-63
2022/01/13 04:02:04;;;;;;;60.83;34.30;;;4.90;99.90;;;;;;5035407;28;20441;-63
2022/01/13 04:04:34;;;;;;;66.47;34.70;;;4.90;99.90;;;;;;5034843;28;20486;-63
2022/01/13 04:07:12;;;;;;;54.53;29.90;;;4.90;99.90;;;;;;5035030;28;20443;-63
2022/01/13 04:10:28;;;;;;;71.70;36.80;;;4.90;99.90;;;;;;5035135;28;20453;-63
2022/01/13 04:12:56;;;;;;;62.73;33.63;;;4.80;99.90;;;;;;5034564;28;20431;-64
2022/01/13 04:15:28;;;;;;;66.43;35.00;;;4.80;99.90;;;;;;5034628;28;20443;-63
2022/01/13 04:17:54;;;;;;;61.30;36.07;;;4.70;99.90;;;;;;5034861;28;20442;-63
2022/01/13 04:20:22;;;;;;;73.80;35.63;;;4.70;99.90;;;;;;5034780;28;20450;-63
2022/01/13 04:22:49;;;;;;;82.63;40.80;;;4.70;99.90;;;;;;5034796;28;20450;-64
2022/01/13 04:25:21;;;;;;;69.40;38.57;;;4.80;99.90;;;;;;5034348;28;20483;-63
2022/01/13 04:27:48;;;;;;;67.07;36.97;;;4.80;99.90;;;;;;5034748;28;20441;-63
2022/01/13 04:30:44;;;;;;;81.73;39.50;;;4.80;99.90;;;;;;5035181;28;20778;-63
2022/01/13 04:33:12;;;;;;;69.60;35.80;;;4.80;99.90;;;;;;5034706;28;20565;-64
2022/01/13 04:35:41;;;;;;;65.47;34.73;;;4.80;99.90;;;;;;5034656;28;20442;-64
2022/01/13 04:38:08;;;;;;;69.60;33.67;;;4.70;99.90;;;;;;5034752;28;20469;-64
2022/01/13 04:40:36;;;;;;;63.73;35.23;;;4.70;99.90;;;;;;5034437;28;20485;-64
2022/01/13 04:43:03;;;;;;;70.20;35.60;;;4.70;99.90;;;;;;5034049;28;20927;-64
2022/01/13 04:45:29;;;;;;;72.13;36.63;;;4.70;99.90;;;;;;5034390;28;20490;-64
2022/01/13 04:47:57;;;;;;;72.67;36.07;;;4.70;99.90;;;;;;5034309;28;20453;-64
2022/01/13 04:50:24;;;;;;;74.73;37.20;;;4.80;99.90;;;;;;5034428;28;20450;-64
2022/01/13 04:52:53;;;;;;;82.70;39.00;;;4.80;99.90;;;;;;5034220;28;20451;-64
2022/01/13 04:55:25;;;;;;;73.30;38.20;;;4.80;99.90;;;;;;5033548;28;20470;-64
2022/01/13 04:57:53;;;;;;;88.93;39.33;;;4.70;99.90;;;;;;5033863;28;20810;-64
2022/01/13 05:00:21;;;;;;;89.90;39.90;;;4.70;99.90;;;;;;5034156;28;20447;-64
2022/01/13 05:02:47;;;;;;;81.70;39.47;;;4.70;99.90;;;;;;5034010;28;20454;-64
2022/01/13 05:05:14;;;;;;;80.83;39.60;;;4.70;99.90;;;;;;5033767;28;20486;-64
2022/01/13 05:07:41;;;;;;;72.90;38.80;;;4.70;99.90;;;;;;5033979;28;20442;-64
2022/01/13 05:10:10;;;;;;;71.33;37.20;;;4.70;99.90;;;;;;5033959;28;20447;-64
2022/01/13 05:12:41;;;;;;;78.20;38.97;;;4.70;99.90;;;;;;5033823;28;20474;-64
2022/01/13 05:15:13;;;;;;;88.93;39.03;;;4.70;99.90;;;;;;5033709;28;20462;-64
2022/01/13 05:18:03;;;;;;;76.00;40.07;;;4.60;99.90;;;;;;5033698;28;20968;-64
2022/01/13 05:20:38;;;;;;;79.70;40.47;;;4.50;99.90;;;;;;5033791;28;20442;-64
2022/01/13 05:23:07;;;;;;;79.50;38.20;;;4.30;99.90;;;;;;5033658;28;20470;-64
2022/01/13 05:25:35;;;;;;;78.47;38.47;;;4.20;99.90;;;;;;5033538;28;20576;-64
2022/01/13 05:28:02;;;;;;;75.50;37.43;;;4.10;99.90;;;;;;5033626;28;20450;-64
2022/01/13 05:30:29;;;;;;;76.40;37.10;;;4.10;99.90;;;;;;5033647;28;20447;-64
2022/01/13 05:32:56;;;;;;;77.87;37.33;;;4.10;99.90;;;;;;5033226;28;20446;-64
2022/01/13 05:35:25;;;;;;;67.90;36.23;;;4.10;99.90;;;;;;5033549;28;20451;-64
2022/01/13 05:37:51;;;;;;;78.47;38.90;;;4.10;99.90;;;;;;5033596;28;20450;-64
2022/01/13 05:40:18;;;;;;;82.17;39.50;;;4.20;99.90;;;;;;5033796;28;20435;-63
2022/01/13 05:42:46;;;;;;;71.90;37.67;;;4.10;99.90;;;;;;5034135;28;20446;-64
2022/01/13 05:45:16;;;;;;;68.73;34.43;;;4.10;99.90;;;;;;5034358;28;20497;-64
2022/01/13 05:47:45;;;;;;;81.23;37.73;;;4.10;99.90;;;;;;5034316;28;20453;-64
2022/01/13 05:50:13;;;;;;;79.37;40.33;;;4.00;99.90;;;;;;5034053;28;20438;-64
2022/01/13 05:52:40;;;;;;;74.73;37.97;;;3.80;99.90;;;;;;5033617;28;20451;-63
2022/01/13 05:55:08;;;;;;;79.40;36.80;;;3.70;99.90;;;;;;5033329;28;20469;-63
2022/01/13 05:57:35;;;;;;;78.43;37.00;;;3.70;99.90;;;;;;5033356;28;20454;-63
2022/01/13 06:00:04;;;;;;;79.87;38.07;;;3.60;99.90;;;;;;5033357;28;20450;-63
2022/01/13 06:02:31;;;;;;;93.83;40.37;;;3.60;99.90;;;;;;5033039;28;20431;-63
2022/01/13 06:04:58;;;;;;;95.13;40.80;;;3.60;99.90;;;;;;5033131;28;20497;-63
2022/01/13 06:07:24;;;;;;;88.10;38.80;;;3.50;99.90;;;;;;5036988;28;20442;-63
2022/01/13 06:09:51;;;;;;;84.23;37.90;;;3.50;99.90;;;;;;5037247;28;20450;-64
2022/01/13 06:12:20;;;;;;;103.60;41.77;;;3.50;99.90;;;;;;5036903;28;20912;-63
2022/01/13 06:14:46;;;;;;;92.83;42.40;;;3.60;99.90;;;;;;5036732;28;20528;-63
2022/01/13 06:17:14;;;;;;;104.20;44.00;;;3.70;99.90;;;;;;5036790;28;20438;-63
2022/01/13 06:19:41;;;;;;;97.33;41.63;;;3.80;99.90;;;;;;5037008;28;20450;-64
2022/01/13 06:22:08;;;;;;;85.10;38.50;;;3.80;99.90;;;;;;5036965;28;20438;-63
2022/01/13 06:24:35;;;;;;;89.70;38.60;;;3.90;99.90;;;;;;5036469;28;20593;-63
2022/01/13 06:27:01;;;;;;;100.10;41.17;;;3.90;99.90;;;;;;5037919;28;20446;-63
2022/01/13 06:29:28;;;;;;;88.07;39.93;;;3.90;99.90;;;;;;5036825;28;20453;-63
2022/01/13 06:31:56;;;;;;;82.23;39.23;;;3.90;99.90;;;;;;5036830;28;20512;-63
2022/01/13 06:34:24;;;;;;;92.37;40.63;;;3.90;99.90;;;;;;5036606;28;20474;-63
2022/01/13 06:36:51;;;;;;;99.07;38.57;;;3.90;99.90;;;;;;5036753;28;20480;-63
2022/01/13 06:39:18;;;;;;;91.00;38.37;;;3.90;99.90;;;;;;5036610;28;20451;-63
2022/01/13 06:41:44;;;;;;;81.73;37.80;;;4.00;99.90;;;;;;5036242;28;20450;-63
2022/01/13 06:44:11;;;;;;;74.23;37.20;;;4.00;99.90;;;;;;5036157;28;20470;-63
2022/01/13 06:46:38;;;;;;;81.53;35.70;;;3.90;99.90;;;;;;5036444;28;20493;-63
2022/01/13 06:49:05;;;;;;;81.63;36.73;;;3.90;99.90;;;;;;5036144;28;20936;-63
2022/01/13 06:51:33;;;;;;;71.50;34.90;;;3.90;99.90;;;;;;5036436;28;20446;-63
2022/01/13 06:54:00;;;;;;;83.33;36.07;;;3.80;99.90;;;;;;5036251;28;20474;-63
2022/01/13 06:56:26;;;;;;;75.47;35.10;;;3.80;99.90;;;;;;5035815;28;20453;-63
2022/01/13 06:58:55;;;;;;;79.57;35.50;;;3.80;99.90;;;;;;5036120;28;20446;-63
2022/01/13 07:01:23;;;;;;;81.50;35.83;;;3.80;99.90;;;;;;5036171;28;20613;-63
2022/01/13 07:03:50;;;;;;;79.13;37.37;;;3.90;99.90;;;;;;5035976;28;20832;-63
2022/01/13 07:06:16;;;;;;;80.07;36.70;;;4.00;99.90;;;;;;5036068;28;20482;-63
2022/01/13 07:08:44;;;;;;;73.60;34.90;;;4.00;99.90;;;;;;5036027;28;20496;-63
2022/01/13 07:11:11;;;;;;;64.80;32.53;;;4.10;99.90;;;;;;5036031;28;20458;-64
2022/01/13 07:13:38;;;;;;;69.50;32.57;;;4.10;99.90;;;;;;5035638;28;20474;-63
2022/01/13 07:16:05;;;;;;;68.73;32.60;;;4.00;99.90;;;;;;5036076;28;20422;-63
2022/01/13 07:18:38;;;;;;;62.50;31.40;;;4.10;99.90;;;;;;5035215;28;20446;-63
2022/01/13 07:21:06;;;;;;;64.23;31.00;;;4.10;99.90;;;;;;5035987;28;20442;-63
2022/01/13 07:23:33;;;;;;;62.00;33.30;;;4.10;99.90;;;;;;5035621;28;20470;-64
2022/01/13 07:26:02;;;;;;;67.90;33.97;;;4.10;99.90;;;;;;5035745;28;20482;-63
2022/01/13 07:28:29;;;;;;;67.90;32.83;;;4.10;99.90;;;;;;5035727;28;20461;-63
2022/01/13 07:30:56;;;;;;;61.20;31.83;;;4.20;99.90;;;;;;5035726;28;20454;-63
2022/01/13 07:33:23;;;;;;;64.37;33.30;;;4.10;99.90;;;;;;5035670;28;20462;-64
2022/01/13 07:35:50;;;;;;;62.87;31.37;;;4.20;99.90;;;;;;5035339;28;20793;-63
2022/01/13 07:38:17;;;;;;;61.20;31.47;;;4.20;99.90;;;;;;5035294;28;20521;-63
2022/01/13 07:40:44;;;;;;;62.63;32.17;;;4.20;99.90;;;;;;5035496;28;20455;-63
2022/01/13 07:43:12;;;;;;;57.30;30.30;;;4.30;99.90;;;;;;5035110;28;20447;-63
2022/01/13 07:45:39;;;;;;;67.33;31.80;;;4.30;99.90;;;;;;5035062;28;20481;-63
2022/01/13 07:48:06;;;;;;;61.43;31.93;;;4.30;99.90;;;;;;5035437;28;20447;-63
2022/01/13 07:50:33;;;;;;;63.50;30.43;;;4.30;99.90;;;;;;5035351;28;20446;-63
2022/01/13 07:53:00;;;;;;;59.07;30.17;;;4.30;99.90;;;;;;5034938;28;20963;-64
2022/01/13 07:55:27;;;;;;;65.43;31.37;;;4.20;99.90;;;;;;5035221;28;20446;-63
2022/01/13 07:57:54;;;;;;;56.77;30.53;;;4.20;99.90;;;;;;5035252;28;20435;-63
2022/01/13 08:00:22;;;;;;;64.17;30.60;;;4.20;99.90;;;;;;5035151;28;20442;-63
2022/01/13 08:02:48;;;;;;;66.73;31.63;;;4.20;99.90;;;;;;5035108;28;20446;-63
2022/01/13 08:05:15;;;;;;;53.07;28.67;;;4.10;99.90;;;;;;5034891;28;20491;-63
2022/01/13 08:07:42;;;;;;;51.20;27.60;;;4.10;99.90;;;;;;5034986;28;20454;-63
2022/01/13 08:10:10;;;;;;;54.07;28.33;;;4.10;99.90;;;;;;5034974;28;20454;-63
2022/01/13 08:12:37;;;;;;;54.27;27.70;;;4.20;99.90;;;;;;5034934;28;20442;-63
2022/01/13 08:15:04;;;;;;;44.80;24.00;;;4.20;99.90;;;;;;5034795;28;20462;-63
2022/01/13 08:20:17;;;;;;;43.03;25.67;;;4.20;99.90;;;;;;5034886;28;20502;-64
2022/01/13 08:22:44;;;;;;;61.77;29.33;;;4.20;99.90;;;;;;5034412;28;20860;-64
2022/01/13 08:25:11;;;;;;;52.73;27.80;;;4.20;99.90;;;;;;5034163;28;20490;-64
2022/01/13 08:27:38;;;;;;;49.20;25.97;;;4.20;99.90;;;;;;5034378;28;20442;-64
2022/01/13 08:30:06;;;;;;;48.30;26.20;;;4.20;99.90;;;;;;5033572;28;20478;-63
2022/01/13 08:32:34;;;;;;;43.33;24.87;;;4.10;99.90;;;;;;5034584;28;20457;-63
2022/01/13 08:35:01;;;;;;;48.93;26.60;;;4.10;99.90;;;;;;5034189;28;20980;-63
2022/01/13 08:37:27;;;;;;;48.50;25.43;;;4.10;99.90;;;;;;5034097;28;20446;-64
2022/01/13 08:39:55;;;;;;;59.07;27.60;;;4.20;99.90;;;;;;5035592;28;20457;-64
2022/01/13 08:42:23;;;;;;;46.50;27.20;;;4.20;99.90;;;;;;5034578;28;20471;-64
2022/01/13 08:44:50;;;;;;;43.23;24.80;;;4.20;99.90;;;;;;5034458;28;20977;-64
2022/01/13 08:47:17;;;;;;;46.73;26.83;;;4.20;99.90;;;;;;5034545;28;20976;-64
2022/01/13 08:49:45;;;;;;;54.33;26.43;;;4.30;99.90;;;;;;5035952;28;20449;-64
2022/01/13 08:52:12;;;;;;;58.57;27.90;;;4.30;99.90;;;;;;5034977;28;20453;-64
2022/01/13 08:54:38;;;;;;;51.20;26.30;;;4.30;99.90;;;;;;5034514;28;20473;-64
2022/01/13 08:57:06;;;;;;;54.40;26.37;;;4.40;99.90;;;;;;5034396;28;20450;-64
2022/01/13 08:59:33;;;;;;;68.63;27.90;;;4.40;99.90;;;;;;5034247;28;20504;-63
2022/01/13 09:02:00;;;;;;;62.83;27.23;;;4.40;99.90;;;;;;5034038;28;20448;-63
2022/01/13 09:04:27;;;;;;;54.60;28.70;;;4.40;99.90;;;;;;5033985;28;20466;-64
2022/01/13 09:06:55;;;;;;;49.67;25.87;;;4.40;99.90;;;;;;5033896;28;20489;-64
2022/01/13 09:09:21;;;;;;;53.83;28.63;;;4.50;99.90;;;;;;5033905;28;20435;-63
2022/01/13 09:11:49;;;;;;;56.97;27.13;;;4.60;99.90;;;;;;5033607;28;20439;-63
2022/01/13 09:14:17;;;;;;;64.30;27.40;;;4.50;99.90;;;;;;5033430;28;20972;-63
2022/01/13 09:16:47;;;;;;;44.73;25.93;;;4.50;99.90;;;;;;5033821;28;20504;-64
2022/01/13 09:19:17;;;;;;;50.10;24.20;;;4.60;99.90;;;;;;5033814;28;20807;-64
2022/01/13 09:21:46;;;;;;;46.40;26.07;;;4.50;99.90;;;;;;5033784;28;20526;-64
2022/01/13 09:24:16;;;;;;;52.13;27.17;;;4.50;99.90;;;;;;5033170;28;20473;-64
2022/01/13 09:26:44;;;;;;;56.63;27.70;;;4.60;99.90;;;;;;5033656;28;20467;-64
2022/01/13 09:29:12;;;;;;;48.77;23.73;;;4.60;99.90;;;;;;5033624;28;20856;-64
2022/01/13 09:31:40;;;;;;;45.13;22.80;;;4.70;99.90;;;;;;5033294;28;20442;-64
2022/01/13 09:34:08;;;;;;;41.33;23.67;;;4.70;99.90;;;;;;5033487;28;20466;-64
2022/01/13 09:36:35;;;;;;;42.57;22.70;;;4.70;99.90;;;;;;5033530;28;20434;-64
2022/01/13 09:39:04;;;;;;;44.03;23.50;;;4.80;99.90;;;;;;5033509;28;20430;-65
2022/01/13 09:41:34;;;;;;;45.77;22.50;;;4.80;99.90;;;;;;5032854;28;20433;-65
2022/01/13 09:44:02;;;;;;;44.03;23.50;;;4.90;99.90;;;;;;5033293;28;20469;-65
2022/01/13 09:46:30;;;;;;;44.63;24.30;;;4.90;99.90;;;;;;5033302;28;20486;-65
2022/01/13 09:48:57;;;;;;;46.10;25.77;;;5.00;99.90;;;;;;5033283;28;20490;-64
2022/01/13 09:51:24;;;;;;;44.07;22.80;;;5.00;99.90;;;;;;5033195;28;20794;-65
2022/01/13 09:53:51;;;;;;;41.63;22.70;;;5.10;99.90;;;;;;5033217;28;20466;-65
2022/01/13 09:56:18;;;;;;;42.70;22.20;;;5.10;99.90;;;;;;5033288;28;20450;-65
2022/01/13 09:58:46;;;;;;;39.40;23.33;;;5.10;99.90;;;;;;5032976;28;20489;-65
2022/01/13 10:01:14;;;;;;;36.53;22.83;;;5.10;99.90;;;;;;5033358;28;20454;-65
2022/01/13 10:03:41;;;;;;;39.20;23.43;;;5.10;99.90;;;;;;5033217;28;20469;-64
2022/01/13 10:06:13;;;;;;;36.57;21.10;;;5.10;99.90;;;;;;5032860;28;21018;-65
2022/01/13 10:08:43;;;;;;;37.17;21.40;;;5.10;99.90;;;;;;5032947;28;20876;-65
2022/01/13 10:11:32;;;;;;;40.53;23.10;;;5.10;99.90;;;;;;5033260;28;20437;-64
2022/01/13 10:14:12;;;;;;;39.80;21.00;;;5.20;99.90;;;;;;5033689;28;20471;-64
2022/01/13 10:16:49;;;;;;;31.13;19.83;;;5.20;99.90;;;;;;5033202;28;20477;-64
2022/01/13 10:19:33;;;;;;;34.53;20.00;;;5.20;99.90;;;;;;5032830;28;20482;-64
2022/01/13 10:22:03;;;;;;;37.57;22.33;;;5.20;99.90;;;;;;5033121;28;20454;-64
2022/01/13 10:24:31;;;;;;;36.10;19.67;;;5.20;99.90;;;;;;5032770;28;20486;-64
2022/01/13 10:27:04;;;;;;;41.00;21.97;;;5.20;99.90;;;;;;5032672;28;20846;-64
2022/01/13 10:29:44;;;;;;;37.80;21.40;;;5.30;99.90;;;;;;5033018;28;20924;-64
2022/01/13 10:32:12;;;;;;;35.50;21.00;;;5.30;99.90;;;;;;5033134;28;20442;-64
2022/01/13 10:34:45;;;;;;;38.20;19.70;;;5.30;99.90;;;;;;5033158;28;20477;-64
2022/01/13 10:37:14;;;;;;;34.70;20.20;;;5.40;99.90;;;;;;5033040;28;20438;-64
2022/01/13 10:39:46;;;;;;;35.13;20.00;;;5.40;99.90;;;;;;5032910;28;20450;-64
2022/01/13 10:42:30;;;;;;;35.97;20.60;;;5.50;99.90;;;;;;5032916;28;20809;-64
2022/01/13 10:45:00;;;;;;;33.77;20.03;;;5.60;99.90;;;;;;5032882;28;20470;-64
2022/01/13 10:47:27;;;;;;;34.67;19.07;;;5.60;99.90;;;;;;5032795;28;20482;-64
2022/01/13 10:50:00;;;;;;;34.53;17.20;;;5.60;99.90;;;;;;5032865;28;20526;-64
2022/01/13 10:52:29;;;;;;;42.77;19.37;;;5.60;99.90;;;;;;5032940;28;20424;-64
2022/01/13 10:55:00;;;;;;;34.03;20.07;;;5.60;99.90;;;;;;5036398;28;20462;-64
2022/01/13 10:57:28;;;;;;;31.77;17.43;;;5.70;99.90;;;;;;5036990;28;20427;-64
2022/01/13 10:59:55;;;;;;;35.87;17.10;;;5.70;99.90;;;;;;5036375;28;20442;-64
2022/01/13 11:02:24;;;;;;;38.60;19.17;;;5.80;99.90;;;;;;5036308;28;20453;-64
2022/01/13 11:04:51;;;;;;;33.47;19.17;;;5.70;99.80;;;;;;5036010;28;21003;-64
2022/01/13 11:07:19;;;;;;;37.10;20.20;;;5.70;99.90;;;;;;5036298;28;20474;-64
2022/01/13 11:09:53;;;;;;;32.43;18.50;;;5.70;99.90;;;;;;5036295;28;20481;-64
2022/01/13 11:12:28;;;;;;;30.93;18.30;;;5.70;99.90;;;;;;5036274;28;20431;-64
2022/01/13 11:15:00;;;;;;;37.10;17.17;;;5.70;99.90;;;;;;5036226;28;20472;-64
2022/01/13 11:17:28;;;;;;;31.00;19.63;;;5.70;99.90;;;;;;5037169;28;20513;-64
2022/01/13 11:19:57;;;;;;;29.93;19.77;;;5.70;99.90;;;;;;5035820;28;20949;-64
2022/01/13 11:22:24;;;;;;;27.43;17.37;;;5.80;99.90;;;;;;5036142;28;20457;-64
2022/01/13 11:24:51;;;;;;;23.33;14.87;;;5.80;99.90;;;;;;5035695;28;20478;-64
2022/01/13 11:27:20;;;;;;;22.63;14.27;;;5.80;99.90;;;;;;5035915;28;20486;-65
2022/01/13 11:29:47;;;;;;;25.83;14.47;;;5.90;99.80;;;;;;5036322;28;20451;-64
2022/01/13 11:32:15;;;;;;;23.23;14.80;;;6.10;99.80;;;;;;5036212;28;20466;-64
2022/01/13 11:34:44;;;;;;;23.83;14.90;;;6.30;99.60;;;;;;5035706;28;20505;-64
2022/01/13 11:37:11;;;;;;;22.37;14.93;;;6.70;98.50;;;;;;5035841;28;20951;-64
2022/01/13 11:39:40;;;;;;;20.30;14.77;;;7.00;97.90;;;;;;5035804;28;20464;-65
2022/01/13 11:42:09;;;;;;;20.80;14.50;;;7.40;97.10;;;;;;5035404;28;20454;-65
2022/01/13 11:44:37;;;;;;;22.27;15.57;;;7.80;96.20;;;;;;5035782;28;20474;-65
2022/01/13 11:47:16;;;;;;;22.67;15.40;;;8.20;94.90;;;;;;5035354;28;21003;-65
2022/01/13 11:49:55;;;;;;;24.77;16.20;;;8.50;93.60;;;;;;5036060;28;20427;-65
2022/01/13 11:52:40;;;;;;;20.97;15.57;;;8.80;92.00;;;;;;5037016;28;20442;-65
2022/01/13 11:55:24;;;;;;;22.17;14.87;;;9.10;90.90;;;;;;5037045;28;20484;-64
2022/01/13 11:57:51;;;;;;;18.50;14.00;;;9.50;90.30;;;;;;5036589;28;20801;-64
2022/01/13 12:00:26;;;;;;;21.83;13.80;;;9.70;88.10;;;;;;5035567;28;20457;-64
2022/01/13 12:02:54;;;;;;;23.00;15.57;;;10.00;85.20;;;;;;5035412;28;20507;-64
2022/01/13 12:05:24;;;;;;;27.60;16.73;;;10.10;84.10;;;;;;5034853;28;20466;-64
2022/01/13 12:07:53;;;;;;;20.17;15.10;;;10.30;82.00;;;;;;5035094;28;20462;-64
2022/01/13 12:10:48;;;;;;;20.53;15.03;;;10.60;81.50;;;;;;5034714;28;20450;-64
2022/01/13 12:13:38;;;;;;;23.93;16.50;;;10.90;79.50;;;;;;5035014;28;20442;-65
2022/01/13 12:16:06;;;;;;;20.27;14.23;;;11.20;75.80;;;;;;5034915;28;20453;-65
2022/01/13 12:19:10;;;;;;;19.93;14.00;;;11.30;73.10;;;;;;5034850;28;20450;-65
2022/01/13 12:21:43;;;;;;;24.03;15.50;;;11.50;74.60;;;;;;5034863;28;20469;-64
2022/01/13 12:24:12;;;;;;;26.67;15.50;;;11.80;71.40;;;;;;5034614;28;20486;-65
2022/01/13 12:26:48;;;;;;;21.93;15.07;;;11.90;70.20;;;;;;5034280;28;20477;-65
2022/01/13 12:29:21;;;;;;;22.93;15.73;;;12.10;68.90;;;;;;5034339;28;20936;-65
2022/01/13 12:31:52;;;;;;;22.43;15.90;;;12.10;66.00;;;;;;5034574;28;20462;-65
2022/01/13 12:34:39;;;;;;;26.97;14.67;;;12.10;66.50;;;;;;5034499;28;20512;-65
2022/01/13 12:37:26;;;;;;;22.40;14.90;;;12.00;66.20;;;;;;5032438;28;20458;-65
2022/01/13 12:39:58;;;;;;;20.20;15.27;;;11.70;67.50;;;;;;5034265;28;20900;-65
2022/01/13 12:42:28;;;;;;;21.07;15.20;;;11.90;69.10;;;;;;5034482;28;20526;-65
2022/01/13 12:47:41;;;;;;;22.33;14.87;;;12.10;65.60;;;;;;5034195;28;20543;-65
2022/01/13 12:50:21;;;;;;;18.70;14.63;;;12.10;65.10;;;;;;5034028;28;20962;-65
2022/01/13 12:52:50;;;;;;;23.47;15.83;;;12.00;66.30;;;;;;5034004;28;20438;-65
2022/01/13 12:55:17;;;;;;;22.17;16.40;;;12.10;67.60;;;;;;5034175;28;20877;-65
2022/01/13 12:57:45;;;;;;;19.00;15.10;;;12.20;66.70;;;;;;5034159;28;20443;-65